Ana Sayfa
METAR-TAF:

METAR-TAF

Havaalanları :

Derby, Avustralya

Enlem: 17-22-12S, Boylam: 123-39-38E, yükseklik: 7 m

Güncel hava durumu gözlemi

Rapor saat 20:00 UTC de 1 saat ve 19 dakika önce yapıldı.
Rüzgar güney/güneydoğudan 7 kt
Sıcaklık 29°C
Nem 79%
Basınç 1010 hPa
Görüş mesafesi 10 km veya daha fazla
2300 ft yükseklikte parçalı bulutlu
11000 ft yükseklikte parçalı bulutlu

METAR: YDBY 092000Z AUTO 15007KT 9999 // SCT023 SCT110 29/25 Q1010

Saat: 05:19 (21:19 UTC)


TAF: eksik

4.000'den fazla havaalanı için hava durumu gözlemleri ve tahminleri (METAR ve TAF raporları).

Kullanılabilir istasyonlar harita üzerinde sarı ve kırmızı noktalarla gösterilir.

İstasyonun adını görmek için fareyi noktanın üzerinde gezdirin.

Sonrasında hava gözlem ve tahminlerini görmek için tıklayın.

Haritayı değiştirmek için: yaklaştırmak için siyah artı işaretli yeşil düğmeye ve uzaklaştırmak için de eksi işaretli düğmeye hızla tıklayın; bitişik haritalar için yeşil okları kullanın.


METAR-TAF: